sensor_id;sensor_type;location;lat;lon;timestamp;pressure;altitude;pressure_sealevel;temperature;humidity
49055;BME280;35405;52.344;14.530;2023-04-08T06:05:14;101257.69;;;6.06;100.00
49055;BME280;35405;52.344;14.530;2023-04-08T06:07:39;101261.03;;;6.13;100.00
49055;BME280;35405;52.344;14.530;2023-04-08T06:10:05;101272.91;;;6.12;100.00
49055;BME280;35405;52.344;14.530;2023-04-08T06:12:33;101270.22;;;6.12;100.00
49055;BME280;35405;52.344;14.530;2023-04-08T06:14:59;101264.06;;;6.16;100.00
49055;BME280;35405;52.344;14.530;2023-04-08T06:17:45;101269.63;;;6.27;100.00
49055;BME280;35405;52.344;14.530;2023-04-08T06:25:47;101278.97;;;6.02;100.00
49055;BME280;35405;52.344;14.530;2023-04-08T06:28:12;101274.97;;;6.05;100.00
49055;BME280;35405;52.344;14.530;2023-04-08T06:30:38;101283.06;;;6.05;100.00
49055;BME280;35405;52.344;14.530;2023-04-08T06:33:15;101286.31;;;6.07;100.00
49055;BME280;35405;52.344;14.530;2023-04-08T06:35:40;101289.13;;;6.12;100.00
49055;BME280;35405;52.344;14.530;2023-04-08T06:41:12;101287.06;;;6.19;100.00
49055;BME280;35405;52.344;14.530;2023-04-08T06:43:40;101294.75;;;6.27;100.00
49055;BME280;35405;52.344;14.530;2023-04-08T06:46:05;101294.16;;;6.42;100.00
49055;BME280;35405;52.344;14.530;2023-04-08T06:48:31;101295.44;;;6.56;100.00
49055;BME280;35405;52.344;14.530;2023-04-08T06:56:24;101296.44;;;7.16;100.00
49055;BME280;35405;52.344;14.530;2023-04-08T06:58:50;101303.16;;;6.92;100.00
49055;BME280;35405;52.344;14.530;2023-04-08T07:11:18;101297.38;;;7.05;100.00
49055;BME280;35405;52.344;14.530;2023-04-08T07:38:46;101319.22;;;7.20;100.00
49055;BME280;35405;52.344;14.530;2023-04-08T07:44:34;101318.38;;;7.20;100.00
49055;BME280;35405;52.344;14.530;2023-04-08T08:06:40;101337.50;;;7.62;100.00
49055;BME280;35405;52.344;14.530;2023-04-08T08:09:24;101332.84;;;7.57;100.00
49055;BME280;35405;52.344;14.530;2023-04-08T08:14:58;101353.88;;;7.23;100.00
49055;BME280;35405;52.344;14.530;2023-04-08T08:29:44;101352.28;;;7.05;100.00
49055;BME280;35405;52.344;14.530;2023-04-08T08:32:17;101344.03;;;7.66;100.00
49055;BME280;35405;52.344;14.530;2023-04-08T08:34:45;101346.84;;;8.04;100.00
49055;BME280;35405;52.344;14.530;2023-04-08T08:43:25;101343.81;;;7.73;100.00
49055;BME280;35405;52.344;14.530;2023-04-08T08:46:28;101337.09;;;7.75;100.00
49055;BME280;35405;52.344;14.530;2023-04-08T08:48:53;101342.22;;;8.04;100.00
49055;BME280;35405;52.344;14.530;2023-04-08T08:51:19;101354.63;;;7.95;100.00
49055;BME280;35405;52.344;14.530;2023-04-08T08:53:56;101360.91;;;8.06;100.00
49055;BME280;35405;52.344;14.530;2023-04-08T08:56:21;101365.81;;;7.76;100.00
49055;BME280;35405;52.344;14.530;2023-04-08T09:01:55;101400.28;;;7.15;100.00
49055;BME280;35405;52.344;14.530;2023-04-08T09:14:04;101426.00;;;7.84;100.00
49055;BME280;35405;52.344;14.530;2023-04-08T09:16:40;101424.63;;;8.08;100.00
49055;BME280;35405;52.344;14.530;2023-04-08T09:22:24;101430.94;;;8.46;100.00
49055;BME280;35405;52.344;14.530;2023-04-08T09:24:50;101418.22;;;8.89;100.00
49055;BME280;35405;52.344;14.530;2023-04-08T09:30:44;101419.09;;;8.95;100.00
49055;BME280;35405;52.344;14.530;2023-04-08T09:36:43;101432.91;;;8.93;100.00
49055;BME280;35405;52.344;14.530;2023-04-08T09:39:09;101440.38;;;9.23;100.00
49055;BME280;35405;52.344;14.530;2023-04-08T09:41:36;101451.56;;;9.32;100.00
49055;BME280;35405;52.344;14.530;2023-04-08T09:44:09;101461.28;;;9.18;100.00
49055;BME280;35405;52.344;14.530;2023-04-08T09:49:33;101471.38;;;9.27;100.00
49055;BME280;35405;52.344;14.530;2023-04-08T09:52:09;101465.38;;;9.25;100.00
49055;BME280;35405;52.344;14.530;2023-04-08T10:00:12;101483.19;;;8.68;100.00
49055;BME280;35405;52.344;14.530;2023-04-08T10:11:16;101537.94;;;8.38;100.00
49055;BME280;35405;52.344;14.530;2023-04-08T10:13:50;101562.91;;;8.18;100.00
49055;BME280;35405;52.344;14.530;2023-04-08T10:16:51;101560.44;;;8.39;100.00
49055;BME280;35405;52.344;14.530;2023-04-08T10:19:45;101568.16;;;8.79;100.00
49055;BME280;35405;52.344;14.530;2023-04-08T10:27:38;101581.09;;;8.72;100.00
49055;BME280;35405;52.344;14.530;2023-04-08T10:32:57;101574.25;;;8.64;100.00
49055;BME280;35405;52.344;14.530;2023-04-08T10:35:30;101568.22;;;9.22;100.00
49055;BME280;35405;52.344;14.530;2023-04-08T10:37:56;101567.44;;;9.74;100.00
49055;BME280;35405;52.344;14.530;2023-04-08T10:40:22;101579.25;;;9.95;100.00
49055;BME280;35405;52.344;14.530;2023-04-08T10:42:53;101582.75;;;9.90;100.00
49055;BME280;35405;52.344;14.530;2023-04-08T10:45:18;101588.00;;;10.12;100.00
49055;BME280;35405;52.344;14.530;2023-04-08T10:47:44;101596.13;;;10.02;100.00
49055;BME280;35405;52.344;14.530;2023-04-08T10:50:15;101586.88;;;10.03;100.00
49055;BME280;35405;52.344;14.530;2023-04-08T10:52:51;101585.16;;;10.44;100.00
49055;BME280;35405;52.344;14.530;2023-04-08T10:55:21;101592.75;;;10.42;100.00
49055;BME280;35405;52.344;14.530;2023-04-08T10:57:47;101591.44;;;10.55;100.00
49055;BME280;35405;52.344;14.530;2023-04-08T11:00:35;101604.63;;;10.21;100.00
49055;BME280;35405;52.344;14.530;2023-04-08T11:03:09;101610.31;;;9.61;100.00
49055;BME280;35405;52.344;14.530;2023-04-08T11:18:26;101609.66;;;10.60;100.00
49055;BME280;35405;52.344;14.530;2023-04-08T11:23:58;101613.53;;;10.99;100.00
49055;BME280;35405;52.344;14.530;2023-04-08T11:27:06;101635.19;;;10.48;100.00
49055;BME280;35405;52.344;14.530;2023-04-08T11:29:18;101614.91;;;11.07;100.00
49055;BME280;35405;52.344;14.530;2023-04-08T11:31:50;101602.09;;;11.33;100.00
49055;BME280;35405;52.344;14.530;2023-04-08T11:43:52;101624.28;;;10.33;100.00
49055;BME280;35405;52.344;14.530;2023-04-08T11:49:47;101641.03;;;10.20;100.00
49055;BME280;35405;52.344;14.530;2023-04-08T11:55:21;101636.66;;;10.08;100.00
49055;BME280;35405;52.344;14.530;2023-04-08T12:00:51;101643.06;;;9.87;100.00
49055;BME280;35405;52.344;14.530;2023-04-08T12:06:49;101639.97;;;9.31;100.00
49055;BME280;35405;52.344;14.530;2023-04-08T12:09:28;101625.44;;;9.15;100.00
49055;BME280;35405;52.344;14.530;2023-04-08T12:11:53;101637.34;;;9.09;100.00
49055;BME280;35405;52.344;14.530;2023-04-08T12:14:21;101631.41;;;9.17;100.00
49055;BME280;35405;52.344;14.530;2023-04-08T12:16:49;101627.69;;;9.60;100.00
49055;BME280;35405;52.344;14.530;2023-04-08T12:19:17;101629.34;;;9.67;100.00
49055;BME280;35405;52.344;14.530;2023-04-08T12:35:54;101650.00;;;10.83;100.00
49055;BME280;35405;52.344;14.530;2023-04-08T12:38:25;101630.41;;;11.07;100.00
49055;BME280;35405;52.344;14.530;2023-04-08T12:40:51;101637.22;;;11.35;100.00
49055;BME280;35405;52.344;14.530;2023-04-08T12:43:28;101648.91;;;11.86;100.00
49055;BME280;35405;52.344;14.530;2023-04-08T12:45:55;101660.88;;;11.96;100.00
49055;BME280;35405;52.344;14.530;2023-04-08T12:48:21;101665.47;;;12.00;100.00
49055;BME280;35405;52.344;14.530;2023-04-08T12:50:46;101651.63;;;11.92;100.00
49055;BME280;35405;52.344;14.530;2023-04-08T12:53:18;101641.53;;;11.87;100.00
49055;BME280;35405;52.344;14.530;2023-04-08T12:55:56;101644.25;;;11.66;100.00
49055;BME280;35405;52.344;14.530;2023-04-08T13:01:21;101645.34;;;11.81;100.00
49055;BME280;35405;52.344;14.530;2023-04-08T13:04:02;101653.25;;;11.82;100.00
49055;BME280;35405;52.344;14.530;2023-04-08T13:06:30;101638.00;;;11.71;100.00
49055;BME280;35405;52.344;14.530;2023-04-08T13:09:13;101634.16;;;11.77;100.00
49055;BME280;35405;52.344;14.530;2023-04-08T13:11:39;101656.56;;;11.43;100.00
49055;BME280;35405;52.344;14.530;2023-04-08T13:14:10;101649.47;;;11.53;100.00
49055;BME280;35405;52.344;14.530;2023-04-08T13:16:36;101646.69;;;11.73;100.00
49055;BME280;35405;52.344;14.530;2023-04-08T13:19:04;101644.47;;;12.06;100.00
49055;BME280;35405;52.344;14.530;2023-04-08T13:21:32;101665.50;;;11.85;100.00
49055;BME280;35405;52.344;14.530;2023-04-08T13:24:09;101666.31;;;11.70;100.00
49055;BME280;35405;52.344;14.530;2023-04-08T13:26:40;101655.97;;;11.98;100.00
49055;BME280;35405;52.344;14.530;2023-04-08T13:29:23;101668.50;;;11.78;100.00
49055;BME280;35405;52.344;14.530;2023-04-08T13:31:51;101661.47;;;11.31;100.00
49055;BME280;35405;52.344;14.530;2023-04-08T13:34:17;101672.91;;;11.38;100.00
49055;BME280;35405;52.344;14.530;2023-04-08T13:36:42;101675.63;;;11.43;100.00
49055;BME280;35405;52.344;14.530;2023-04-08T13:39:08;101663.38;;;11.61;100.00
49055;BME280;35405;52.344;14.530;2023-04-08T13:41:34;101675.34;;;11.50;100.00
49055;BME280;35405;52.344;14.530;2023-04-08T13:43:59;101668.00;;;11.20;100.00
49055;BME280;35405;52.344;14.530;2023-04-08T13:46:31;101666.06;;;11.05;100.00
49055;BME280;35405;52.344;14.530;2023-04-08T13:49:16;101663.31;;;10.85;100.00
49055;BME280;35405;52.344;14.530;2023-04-08T13:54:54;101668.44;;;10.71;100.00
49055;BME280;35405;52.344;14.530;2023-04-08T13:57:23;101676.84;;;10.54;100.00
49055;BME280;35405;52.344;14.530;2023-04-08T13:59:56;101670.47;;;10.28;100.00
49055;BME280;35405;52.344;14.530;2023-04-08T14:02:21;101664.66;;;10.82;100.00
49055;BME280;35405;52.344;14.530;2023-04-08T14:04:56;101671.53;;;11.26;100.00
49055;BME280;35405;52.344;14.530;2023-04-08T14:07:21;101668.25;;;11.08;100.00
49055;BME280;35405;52.344;14.530;2023-04-08T14:12:42;101685.78;;;10.49;100.00
49055;BME280;35405;52.344;14.530;2023-04-08T14:15:10;101677.47;;;10.82;100.00
49055;BME280;35405;52.344;14.530;2023-04-08T14:18:05;101680.16;;;10.76;100.00
49055;BME280;35405;52.344;14.530;2023-04-08T14:20:41;101699.50;;;10.75;100.00
49055;BME280;35405;52.344;14.530;2023-04-08T14:23:09;101686.22;;;10.26;100.00
49055;BME280;35405;52.344;14.530;2023-04-08T14:25:37;101696.91;;;9.95;100.00
49055;BME280;35405;52.344;14.530;2023-04-08T14:28:03;101691.41;;;9.85;100.00
49055;BME280;35405;52.344;14.530;2023-04-08T14:30:31;101695.28;;;9.94;100.00
49055;BME280;35405;52.344;14.530;2023-04-08T14:32:57;101691.94;;;9.82;100.00
49055;BME280;35405;52.344;14.530;2023-04-08T14:35:24;101691.09;;;9.44;100.00
49055;BME280;35405;52.344;14.530;2023-04-08T14:37:50;101692.25;;;9.48;100.00
49055;BME280;35405;52.344;14.530;2023-04-08T14:40:30;101692.75;;;9.45;100.00
49055;BME280;35405;52.344;14.530;2023-04-08T14:46:03;101698.91;;;9.35;100.00
49055;BME280;35405;52.344;14.530;2023-04-08T14:51:48;101684.06;;;9.16;100.00
49055;BME280;35405;52.344;14.530;2023-04-08T14:54:13;101689.72;;;9.09;100.00
49055;BME280;35405;52.344;14.530;2023-04-08T14:56:40;101687.88;;;9.15;100.00
49055;BME280;35405;52.344;14.530;2023-04-08T15:02:42;101683.84;;;9.92;100.00
49055;BME280;35405;52.344;14.530;2023-04-08T15:05:00;101683.75;;;9.77;100.00
49055;BME280;35405;52.344;14.530;2023-04-08T15:07:33;101688.94;;;9.46;100.00
49055;BME280;35405;52.344;14.530;2023-04-08T15:13:04;101670.94;;;9.35;100.00
49055;BME280;35405;52.344;14.530;2023-04-08T15:15:48;101668.31;;;9.13;100.00
49055;BME280;35405;52.344;14.530;2023-04-08T15:18:14;101680.38;;;9.27;100.00
49055;BME280;35405;52.344;14.530;2023-04-08T15:20:51;101672.88;;;9.72;100.00
49055;BME280;35405;52.344;14.530;2023-04-08T15:23:30;101682.34;;;10.12;100.00
49055;BME280;35405;52.344;14.530;2023-04-08T15:26:09;101688.78;;;10.00;100.00
49055;BME280;35405;52.344;14.530;2023-04-08T15:28:44;101693.91;;;9.92;100.00
49055;BME280;35405;52.344;14.530;2023-04-08T15:40:50;101690.75;;;9.03;100.00
49055;BME280;35405;52.344;14.530;2023-04-08T15:43:18;101693.59;;;8.91;100.00
49055;BME280;35405;52.344;14.530;2023-04-08T15:45:53;101704.41;;;8.86;100.00
49055;BME280;35405;52.344;14.530;2023-04-08T15:48:19;101694.34;;;8.87;100.00
49055;BME280;35405;52.344;14.530;2023-04-08T15:53:29;101702.22;;;8.61;100.00
49055;BME280;35405;52.344;14.530;2023-04-08T15:55:57;101697.53;;;8.57;100.00
49055;BME280;35405;52.344;14.530;2023-04-08T16:01:24;101702.94;;;8.52;100.00
49055;BME280;35405;52.344;14.530;2023-04-08T16:04:03;101699.56;;;8.44;100.00
49055;BME280;35405;52.344;14.530;2023-04-08T16:06:31;101702.94;;;8.35;100.00
49055;BME280;35405;52.344;14.530;2023-04-08T16:09:08;101695.81;;;8.29;100.00
49055;BME280;35405;52.344;14.530;2023-04-08T16:11:51;101694.50;;;8.31;100.00
49055;BME280;35405;52.344;14.530;2023-04-08T16:20:21;101710.88;;;8.19;100.00
49055;BME280;35405;52.344;14.530;2023-04-08T16:29:15;101705.47;;;8.02;100.00
49055;BME280;35405;52.344;14.530;2023-04-08T16:31:46;101714.59;;;7.96;100.00
49055;BME280;35405;52.344;14.530;2023-04-08T16:37:45;101706.75;;;7.78;100.00
49055;BME280;35405;52.344;14.530;2023-04-08T16:40:22;101710.63;;;7.65;100.00
49055;BME280;35405;52.344;14.530;2023-04-08T16:43:05;101720.78;;;7.58;100.00
49055;BME280;35405;52.344;14.530;2023-04-08T16:45:31;101717.91;;;7.48;100.00
49055;BME280;35405;52.344;14.530;2023-04-08T16:47:59;101726.69;;;7.38;100.00
49055;BME280;35405;52.344;14.530;2023-04-08T16:50:44;101726.84;;;7.31;100.00
49055;BME280;35405;52.344;14.530;2023-04-08T16:53:10;101725.00;;;7.20;100.00
49055;BME280;35405;52.344;14.530;2023-04-08T16:55:35;101735.41;;;7.12;100.00
49055;BME280;35405;52.344;14.530;2023-04-08T16:58:01;101729.88;;;7.06;100.00
49055;BME280;35405;52.344;14.530;2023-04-08T17:00:27;101739.22;;;6.99;100.00
49055;BME280;35405;52.344;14.530;2023-04-08T17:02:56;101735.00;;;6.91;100.00
49055;BME280;35405;52.344;14.530;2023-04-08T17:05:23;101740.56;;;6.84;100.00
49055;BME280;35405;52.344;14.530;2023-04-08T17:07:51;101736.47;;;6.82;100.00
49055;BME280;35405;52.344;14.530;2023-04-08T17:10:17;101734.50;;;6.77;100.00
49055;BME280;35405;52.344;14.530;2023-04-08T17:12:43;101740.00;;;6.71;100.00
49055;BME280;35405;52.344;14.530;2023-04-08T17:15:11;101732.03;;;6.64;100.00
49055;BME280;35405;52.344;14.530;2023-04-08T17:17:48;101735.69;;;6.58;100.00
49055;BME280;35405;52.344;14.530;2023-04-08T17:20:13;101738.22;;;6.48;100.00
49055;BME280;35405;52.344;14.530;2023-04-08T17:22:39;101735.53;;;6.36;100.00
49055;BME280;35405;52.344;14.530;2023-04-08T17:25:07;101746.00;;;6.32;100.00
49055;BME280;35405;52.344;14.530;2023-04-08T17:33:26;101750.09;;;6.00;100.00
49055;BME280;35405;52.344;14.530;2023-04-08T17:35:55;101745.28;;;5.90;100.00
49055;BME280;35405;52.344;14.530;2023-04-08T17:38:21;101747.50;;;5.81;100.00
49055;BME280;35405;52.344;14.530;2023-04-08T17:40:46;101743.09;;;5.68;100.00
49055;BME280;35405;52.344;14.530;2023-04-08T17:43:15;101755.22;;;5.66;100.00
49055;BME280;35405;52.344;14.530;2023-04-08T17:45:42;101757.66;;;5.56;100.00
49055;BME280;35405;52.344;14.530;2023-04-08T17:48:07;101747.63;;;5.44;100.00
49055;BME280;35405;52.344;14.530;2023-04-08T17:50:33;101752.56;;;5.36;100.00
49055;BME280;35405;52.344;14.530;2023-04-08T17:52:59;101754.88;;;5.32;100.00
49055;BME280;35405;52.344;14.530;2023-04-08T17:55:25;101760.72;;;5.29;100.00
49055;BME280;35405;52.344;14.530;2023-04-08T17:57:50;101762.50;;;5.23;100.00
49055;BME280;35405;52.344;14.530;2023-04-08T18:00:16;101762.56;;;5.17;100.00
49055;BME280;35405;52.344;14.530;2023-04-08T18:02:41;101769.69;;;5.11;100.00
49055;BME280;35405;52.344;14.530;2023-04-08T18:05:10;101774.97;;;5.06;100.00
49055;BME280;35405;52.344;14.530;2023-04-08T18:07:41;101772.38;;;4.99;100.00
49055;BME280;35405;52.344;14.530;2023-04-08T18:19:29;101771.28;;;4.52;100.00
49055;BME280;35405;52.344;14.530;2023-04-08T18:48:51;101752.13;;;3.48;100.00
49055;BME280;35405;52.344;14.530;2023-04-08T18:59:35;101743.19;;;3.23;100.00
49055;BME280;35405;52.344;14.530;2023-04-08T19:26:58;101727.00;;;2.52;100.00
49055;BME280;35405;52.344;14.530;2023-04-08T19:32:35;101722.72;;;2.38;100.00
49055;BME280;35405;52.344;14.530;2023-04-08T19:38:20;101711.97;;;2.38;100.00
49055;BME280;35405;52.344;14.530;2023-04-08T19:43:32;101707.47;;;2.32;100.00
49055;BME280;35405;52.344;14.530;2023-04-08T19:48:52;101700.88;;;2.21;100.00
49055;BME280;35405;52.344;14.530;2023-04-08T19:51:43;101706.47;;;2.20;100.00
49055;BME280;35405;52.344;14.530;2023-04-08T19:54:31;101707.91;;;2.16;100.00
49055;BME280;35405;52.344;14.530;2023-04-08T20:00:16;101706.09;;;2.03;100.00
49055;BME280;35405;52.344;14.530;2023-04-08T20:02:47;101703.41;;;2.03;100.00
49055;BME280;35405;52.344;14.530;2023-04-08T20:05:12;101698.81;;;2.10;100.00
49055;BME280;35405;52.344;14.530;2023-04-08T20:23:19;101712.53;;;1.75;100.00
49055;BME280;35405;52.344;14.530;2023-04-08T21:08:39;101734.56;;;1.91;100.00
49055;BME280;35405;52.344;14.530;2023-04-08T21:11:05;101739.31;;;1.89;100.00
